createdAt,value
2022-10-10T00:02:06.921Z,76801.28
2022-10-10T00:06:08.890Z,76822.03
2022-10-10T00:10:11.513Z,76900.94
2022-10-10T00:14:14.303Z,76882.25
2022-10-10T00:18:16.569Z,76930.00
2022-10-10T00:22:18.198Z,76959.09
2022-10-10T00:26:19.890Z,76934.16
2022-10-10T00:30:22.766Z,76913.41
2022-10-10T00:34:24.389Z,76938.31
2022-10-10T00:39:00.258Z,76921.72
2022-10-10T00:43:01.961Z,76973.63
2022-10-10T00:47:05.050Z,76996.47
2022-10-10T00:51:10.801Z,77008.94
2022-10-10T00:55:13.125Z,76979.84
2022-10-10T00:59:15.978Z,76954.94
2022-10-10T01:03:18.993Z,76944.56
2022-10-10T01:07:22.513Z,76944.56
2022-10-10T01:11:36.929Z,76946.63
2022-10-10T01:15:47.190Z,76988.16
2022-10-10T01:20:23.315Z,76932.09
2022-10-10T01:24:49.806Z,76919.63
2022-10-10T01:28:58.818Z,76903.03
2022-10-10T01:33:06.819Z,76898.88
2022-10-10T01:37:17.237Z,76880.19
2022-10-10T01:41:24.100Z,76911.31
2022-10-10T01:45:28.378Z,76865.66
2022-10-10T01:49:32.705Z,76871.88
2022-10-10T01:53:43.518Z,76898.88
2022-10-10T01:57:57.763Z,76923.78
2022-10-10T02:02:08.889Z,76876.03
2022-10-10T02:06:16.687Z,76886.41
2022-10-10T02:10:23.166Z,76886.41
2022-10-10T02:14:28.894Z,76896.78
2022-10-10T02:18:35.260Z,76888.47
2022-10-10T02:22:38.198Z,76890.56
2022-10-10T02:26:43.982Z,76884.34
2022-10-10T02:30:48.784Z,76886.41
2022-10-10T02:34:55.323Z,76876.03
2022-10-10T02:38:59.042Z,76880.19
2022-10-10T02:43:03.654Z,76869.78
2022-10-10T02:47:05.573Z,76859.41
2022-10-10T02:51:09.691Z,76855.25
2022-10-10T02:55:11.098Z,76851.09
2022-10-10T02:59:12.591Z,76855.25
2022-10-10T03:03:14.140Z,76853.19
2022-10-10T03:07:17.034Z,76853.19
2022-10-10T03:11:18.595Z,76857.34
2022-10-10T03:15:20.013Z,76844.88
2022-10-10T03:19:21.658Z,76844.88
2022-10-10T03:23:25.082Z,76824.13
2022-10-10T03:27:26.941Z,76842.81
2022-10-10T03:31:28.390Z,76851.09
2022-10-10T03:35:29.987Z,76882.25
2022-10-10T03:39:32.910Z,76936.25
2022-10-10T03:43:34.600Z,76957.00
2022-10-10T03:47:35.991Z,76963.25
2022-10-10T03:51:37.412Z,76975.69
2022-10-10T03:55:41.214Z,76975.69
2022-10-10T03:59:42.649Z,76969.47
2022-10-10T04:03:46.601Z,76950.78
2022-10-10T04:07:51.314Z,76984.00
2022-10-10T04:11:54.060Z,76984.00
2022-10-10T04:15:56.602Z,76967.38
2022-10-10T04:19:58.166Z,76944.56
2022-10-10T04:23:59.549Z,76969.47
2022-10-10T04:28:02.450Z,76932.09
2022-10-10T04:32:03.903Z,76917.56
2022-10-10T04:36:05.878Z,76884.34
2022-10-10T04:40:08.758Z,76873.94
2022-10-10T04:44:11.522Z,76851.09
2022-10-10T04:48:13.230Z,76849.03
2022-10-10T04:52:14.938Z,76876.03
2022-10-10T04:56:16.358Z,76890.56
2022-10-10T05:00:19.559Z,76900.94
2022-10-10T05:04:20.957Z,76938.31
2022-10-10T05:08:22.553Z,76938.31
2022-10-10T05:12:24.200Z,76946.63
2022-10-10T05:16:27.081Z,76934.16
2022-10-10T05:20:28.789Z,76950.78
2022-10-10T05:24:30.386Z,76952.84
2022-10-10T05:28:31.867Z,76961.16
2022-10-10T05:32:34.937Z,76984.00
2022-10-10T05:36:36.520Z,76979.84
2022-10-10T05:40:39.250Z,76965.31
2022-10-10T05:44:40.794Z,76971.53
2022-10-10T05:48:44.869Z,76984.00
2022-10-10T05:52:46.274Z,76927.94
2022-10-10T05:56:48.138Z,76913.41
2022-10-10T06:00:49.574Z,76896.78
2022-10-10T06:04:52.328Z,76869.78
2022-10-10T06:08:53.778Z,76923.78
2022-10-10T06:12:55.225Z,76946.63
2022-10-10T06:16:56.646Z,76946.63
2022-10-10T06:21:03.624Z,76957.00
2022-10-10T06:25:15.164Z,76946.63
2022-10-10T06:29:25.807Z,76954.94
2022-10-10T06:33:27.952Z,76923.78
2022-10-10T06:37:30.671Z,76892.63
2022-10-10T06:41:32.285Z,76876.03
2022-10-10T06:45:35.849Z,76871.88
2022-10-10T06:49:37.424Z,76842.81
2022-10-10T06:53:40.369Z,76840.72
2022-10-10T06:57:41.767Z,76788.81
2022-10-10T07:01:43.260Z,76755.59
2022-10-10T07:05:44.947Z,76693.31
2022-10-10T07:09:47.696Z,76643.47
2022-10-10T07:13:49.160Z,76593.63
2022-10-10T07:17:56.977Z,76431.69
2022-10-10T07:21:58.363Z,76265.59
2022-10-10T07:26:03.402Z,76078.72
2022-10-10T07:30:05.966Z,76070.44
2022-10-10T07:34:07.503Z,76035.13
2022-10-10T07:38:11.183Z,75933.41
2022-10-10T07:42:14.104Z,76028.91
2022-10-10T07:46:18.032Z,76084.97
2022-10-10T07:50:19.396Z,76141.00
2022-10-10T07:54:20.934Z,76203.28
2022-10-10T07:58:23.721Z,76176.31
2022-10-10T08:02:25.191Z,76172.16
2022-10-10T08:06:26.780Z,76215.75
2022-10-10T08:10:28.350Z,76219.91
2022-10-10T08:14:31.257Z,76211.59
2022-10-10T08:18:33.023Z,76234.44
2022-10-10T08:22:34.546Z,76236.50
2022-10-10T08:26:36.108Z,76232.38
2022-10-10T08:30:41.595Z,76236.50
2022-10-10T08:34:42.981Z,76248.97
2022-10-10T08:38:44.522Z,76232.38
2022-10-10T08:42:53.057Z,76244.81
2022-10-10T08:46:58.528Z,76234.44
2022-10-10T08:51:04.271Z,76251.06
2022-10-10T08:55:13.468Z,76253.13
2022-10-10T08:59:18.555Z,76213.69
2022-10-10T09:03:28.643Z,76199.16
2022-10-10T09:07:47.495Z,76165.94
2022-10-10T09:11:59.965Z,76155.53
2022-10-10T09:16:04.648Z,76151.41
2022-10-10T09:20:23.625Z,76134.78
2022-10-10T09:24:31.297Z,76128.56
2022-10-10T09:28:39.194Z,76107.78
2022-10-10T09:32:45.264Z,76091.19
2022-10-10T09:36:49.268Z,76039.28
2022-10-10T09:40:57.199Z,75991.53
2022-10-10T09:44:59.039Z,75960.41
2022-10-10T09:49:00.468Z,75837.91
2022-10-10T09:53:03.263Z,75611.63
2022-10-10T09:57:04.843Z,75528.59
2022-10-10T10:01:14.496Z,75431.03
2022-10-10T10:05:24.519Z,75393.69
2022-10-10T10:09:27.349Z,75503.69
2022-10-10T10:13:32.051Z,75522.38
2022-10-10T10:17:33.861Z,75501.63
2022-10-10T10:21:49.304Z,75534.84
2022-10-10T10:25:59.530Z,75557.66
2022-10-10T10:30:01.296Z,75447.66
2022-10-10T10:34:18.418Z,75449.72
2022-10-10T10:38:31.952Z,75348.00
2022-10-10T10:42:49.807Z,75306.50
2022-10-10T10:47:04.177Z,75362.53
2022-10-10T10:51:16.183Z,75242.16
2022-10-10T10:55:27.170Z,75148.75
2022-10-10T11:00:21.812Z,75206.88
2022-10-10T11:05:20.537Z,75055.34
2022-10-10T11:08:44.567Z,75175.75
2022-10-10T11:12:58.131Z,75044.97
2022-10-10T11:17:07.273Z,75117.63
2022-10-10T11:21:15.201Z,75211.03
2022-10-10T11:25:22.273Z,75275.38
2022-10-10T11:29:28.171Z,75227.63
2022-10-10T11:33:34.180Z,75339.72
2022-10-10T11:37:42.998Z,75360.47
2022-10-10T11:41:49.089Z,75335.56
2022-10-10T11:46:00.636Z,75294.06
2022-10-10T11:50:15.684Z,75244.22
2022-10-10T11:54:27.385Z,75260.84
2022-10-10T11:58:35.118Z,75337.63
2022-10-10T12:02:38.605Z,75335.56
2022-10-10T12:06:45.262Z,75327.25
2022-10-10T12:10:51.766Z,75368.78
2022-10-10T12:14:54.978Z,75455.94
2022-10-10T12:19:02.214Z,75356.31
2022-10-10T12:23:19.609Z,75348.00
2022-10-10T12:27:43.595Z,75331.41
2022-10-10T12:31:45.167Z,75375.00
2022-10-10T12:35:46.733Z,75375.00
2022-10-10T12:40:21.457Z,75404.06
2022-10-10T12:44:24.657Z,75337.63
2022-10-10T12:48:26.245Z,75377.06
2022-10-10T12:52:30.990Z,75368.78
2022-10-10T12:56:37.762Z,75383.31
2022-10-10T13:00:42.194Z,75318.97
2022-10-10T13:04:45.719Z,75343.88
2022-10-10T13:08:49.932Z,75273.28
2022-10-10T13:13:05.218Z,75260.84
2022-10-10T13:17:23.729Z,75273.28
2022-10-10T13:21:27.493Z,75269.13
2022-10-10T13:25:29.467Z,75335.56
2022-10-10T13:29:34.415Z,75356.31
2022-10-10T13:33:35.897Z,75321.03
2022-10-10T13:37:37.644Z,75294.06
2022-10-10T13:41:39.313Z,75285.75
2022-10-10T13:45:46.835Z,75302.34
2022-10-10T13:49:55.768Z,75395.75
2022-10-10T13:53:59.162Z,75381.22
2022-10-10T13:58:06.355Z,75443.50
2022-10-10T14:02:13.683Z,75462.19
2022-10-10T14:06:18.449Z,75472.56
2022-10-10T14:10:24.364Z,75509.94
2022-10-10T14:14:32.311Z,75530.69
2022-10-10T14:18:35.229Z,75541.06
2022-10-10T14:22:36.895Z,75549.38
2022-10-10T14:26:38.413Z,75586.72
2022-10-10T14:30:40.107Z,75586.72
2022-10-10T14:34:43.866Z,75592.97
2022-10-10T14:38:45.463Z,75595.03
2022-10-10T14:42:46.961Z,75628.25
2022-10-10T14:46:48.470Z,75646.94
2022-10-10T14:50:51.411Z,75661.47
2022-10-10T14:54:52.918Z,75690.53
2022-10-10T14:58:54.672Z,75680.16
2022-10-10T15:02:56.996Z,75709.19
2022-10-10T15:07:12.959Z,75723.75
2022-10-10T15:11:16.693Z,75754.88
2022-10-10T15:15:18.405Z,75775.63
2022-10-10T15:19:19.830Z,75790.16
2022-10-10T15:23:22.805Z,75804.69
2022-10-10T15:27:24.585Z,75819.22
2022-10-10T15:31:27.534Z,75819.22
2022-10-10T15:35:44.696Z,75864.91
2022-10-10T15:39:51.941Z,75879.44
2022-10-10T15:43:54.278Z,75908.50
2022-10-10T15:47:55.918Z,75904.34
2022-10-10T15:51:57.284Z,75939.63
2022-10-10T15:56:00.303Z,75933.41
2022-10-10T16:00:01.853Z,75972.84
2022-10-10T16:04:04.948Z,75993.63
2022-10-10T16:08:09.815Z,76004.00
2022-10-10T16:12:12.586Z,76028.91
2022-10-10T16:16:16.624Z,76030.97
2022-10-10T16:20:18.368Z,76041.38
2022-10-10T16:24:19.787Z,76053.81
2022-10-10T16:28:22.835Z,76066.28
2022-10-10T16:32:24.427Z,76066.28
2022-10-10T16:36:28.188Z,76095.34
2022-10-10T16:40:29.765Z,76107.78
2022-10-10T16:44:32.788Z,76116.09
2022-10-10T16:48:36.273Z,76128.56
2022-10-10T16:52:38.299Z,76134.78
2022-10-10T16:56:39.970Z,76153.47
2022-10-10T17:00:43.175Z,76199.16
2022-10-10T17:04:44.581Z,76211.59
2022-10-10T17:08:46.797Z,76209.53
2022-10-10T17:12:48.214Z,76238.59
2022-10-10T17:21:14.825Z,76284.28
2022-10-10T17:25:16.401Z,76300.88
2022-10-10T17:29:17.942Z,76305.03
2022-10-10T17:33:20.761Z,76321.63
2022-10-10T17:37:22.349Z,76350.72
2022-10-10T17:41:23.946Z,76344.47
2022-10-10T17:45:25.646Z,76336.19
2022-10-10T17:49:28.437Z,76352.78
2022-10-10T17:53:31.663Z,76340.31
2022-10-10T17:57:33.261Z,76352.78
2022-10-10T18:01:36.103Z,76365.25
2022-10-10T18:05:39.378Z,76346.56
2022-10-10T18:09:41.932Z,76400.53
2022-10-10T18:13:44.022Z,76400.53
2022-10-10T18:17:47.018Z,76423.38
2022-10-10T18:21:49.855Z,76429.59
2022-10-10T18:26:01.023Z,76440.00
2022-10-10T18:30:02.619Z,76435.84
2022-10-10T18:34:06.273Z,76452.44
2022-10-10T18:38:09.007Z,76466.97
2022-10-10T18:42:10.428Z,76493.97
2022-10-10T18:46:15.667Z,76514.72
2022-10-10T18:50:17.651Z,76531.34
2022-10-10T18:54:20.424Z,76552.09
2022-10-10T18:58:21.836Z,76595.72
2022-10-10T19:02:23.256Z,76568.72
2022-10-10T19:06:24.993Z,76643.47
2022-10-10T19:10:27.890Z,76618.56
2022-10-10T19:14:29.381Z,76660.06
2022-10-10T19:18:30.970Z,76651.78
2022-10-10T19:22:33.013Z,76689.16
2022-10-10T19:26:36.370Z,76672.53
2022-10-10T19:30:38.262Z,76691.22
2022-10-10T19:34:39.710Z,76689.16
2022-10-10T19:38:42.482Z,76711.97
2022-10-10T19:42:45.359Z,76685.00
2022-10-10T19:46:46.966Z,76718.22
2022-10-10T19:50:48.654Z,76722.38
2022-10-10T19:54:50.054Z,76743.13
2022-10-10T19:58:54.382Z,76768.06
2022-10-10T20:02:56.045Z,76751.44
2022-10-10T20:06:57.466Z,76765.97
2022-10-10T20:10:59.049Z,76772.19
2022-10-10T20:15:01.885Z,76801.28
2022-10-10T20:19:03.763Z,76846.97
2022-10-10T20:23:05.354Z,76817.88
2022-10-10T20:27:06.942Z,76851.09
2022-10-10T20:31:15.501Z,76853.19
2022-10-10T20:35:17.026Z,76857.34
2022-10-10T20:39:18.430Z,76884.34
2022-10-10T20:43:19.953Z,76886.41
2022-10-10T20:47:22.882Z,76873.94
2022-10-10T20:51:25.514Z,76876.03
2022-10-10T20:55:27.110Z,76896.78
2022-10-10T20:59:28.629Z,76896.78
2022-10-10T21:03:31.605Z,76942.47
2022-10-10T21:07:33.077Z,76967.38
2022-10-10T21:11:35.472Z,77015.16
2022-10-10T21:15:36.889Z,77029.69
2022-10-10T21:19:39.777Z,77031.75
2022-10-10T21:23:43.705Z,77108.59
2022-10-10T21:27:48.225Z,77121.06
2022-10-10T21:31:49.641Z,77145.97
2022-10-10T21:35:53.806Z,77158.44
2022-10-10T21:39:55.338Z,77164.66
2022-10-10T21:43:58.064Z,77168.81
2022-10-10T21:47:59.597Z,77204.13
2022-10-10T21:52:02.510Z,77220.75
2022-10-10T21:56:05.883Z,77229.03
2022-10-10T22:00:09.249Z,77239.44
2022-10-10T22:04:10.885Z,77237.34
2022-10-10T22:08:13.610Z,77262.28
2022-10-10T22:12:15.162Z,77280.97
2022-10-10T22:16:17.323Z,77278.88
2022-10-10T22:20:18.965Z,77307.97
2022-10-10T22:24:21.887Z,77320.41
2022-10-10T22:28:23.570Z,77312.13
2022-10-10T22:32:25.153Z,77314.19
2022-10-10T22:36:26.935Z,77337.03
2022-10-10T22:40:30.057Z,77366.09
2022-10-10T22:44:31.621Z,77364.03
2022-10-10T22:48:33.193Z,77366.09
2022-10-10T22:52:34.873Z,77382.72
2022-10-10T22:56:37.718Z,77388.94
2022-10-10T23:00:40.629Z,77411.78
2022-10-10T23:04:42.363Z,77426.34
2022-10-10T23:08:43.798Z,77424.25
2022-10-10T23:12:46.674Z,77440.88
2022-10-10T23:16:48.189Z,77457.50
2022-10-10T23:20:50.242Z,77455.41
2022-10-10T23:24:51.764Z,77480.34
2022-10-10T23:28:56.499Z,77494.88
2022-10-10T23:32:58.062Z,77511.47
2022-10-10T23:36:59.609Z,77513.56
2022-10-10T23:41:01.068Z,77511.47
2022-10-10T23:45:07.881Z,77511.47
2022-10-10T23:49:10.119Z,77515.63
2022-10-10T23:53:11.769Z,77532.25
2022-10-10T23:57:13.342Z,77546.78
